sensor_id;sensor_type;location;lat;lon;timestamp;P1;durP1;ratioP1;P2;durP2;ratioP2
14235;SDS011;7202;50.718;7.072;2024-02-26T00:00:04;1.33;;;1.17;;
14235;SDS011;7202;50.718;7.072;2024-02-26T00:02:36;2.10;;;1.48;;
14235;SDS011;7202;50.718;7.072;2024-02-26T00:05:05;1.77;;;1.30;;
14235;SDS011;7202;50.718;7.072;2024-02-26T00:07:35;2.00;;;1.48;;
14235;SDS011;7202;50.718;7.072;2024-02-26T00:10:05;2.03;;;1.60;;
14235;SDS011;7202;50.718;7.072;2024-02-26T00:12:34;3.85;;;1.40;;
14235;SDS011;7202;50.718;7.072;2024-02-26T00:15:04;1.73;;;1.35;;
14235;SDS011;7202;50.718;7.072;2024-02-26T00:17:33;1.40;;;1.15;;
14235;SDS011;7202;50.718;7.072;2024-02-26T00:20:01;1.45;;;1.17;;
14235;SDS011;7202;50.718;7.072;2024-02-26T00:22:31;1.90;;;1.27;;
14235;SDS011;7202;50.718;7.072;2024-02-26T00:24:59;2.28;;;1.40;;
14235;SDS011;7202;50.718;7.072;2024-02-26T00:27:28;2.22;;;1.38;;
14235;SDS011;7202;50.718;7.072;2024-02-26T00:29:57;5.57;;;1.20;;
14235;SDS011;7202;50.718;7.072;2024-02-26T00:32:27;2.65;;;1.50;;
14235;SDS011;7202;50.718;7.072;2024-02-26T00:34:55;1.73;;;0.93;;
14235;SDS011;7202;50.718;7.072;2024-02-26T00:37:24;2.35;;;1.20;;
14235;SDS011;7202;50.718;7.072;2024-02-26T00:39:52;1.40;;;1.10;;
14235;SDS011;7202;50.718;7.072;2024-02-26T00:42:21;1.05;;;0.88;;
14235;SDS011;7202;50.718;7.072;2024-02-26T00:44:50;3.00;;;1.10;;
14235;SDS011;7202;50.718;7.072;2024-02-26T00:47:18;1.02;;;0.80;;
14235;SDS011;7202;50.718;7.072;2024-02-26T00:49:48;1.15;;;0.85;;
14235;SDS011;7202;50.718;7.072;2024-02-26T00:52:17;1.20;;;1.00;;
14235;SDS011;7202;50.718;7.072;2024-02-26T00:54:45;1.42;;;0.98;;
14235;SDS011;7202;50.718;7.072;2024-02-26T00:57:14;1.95;;;0.90;;
14235;SDS011;7202;50.718;7.072;2024-02-26T00:59:43;1.85;;;1.02;;
14235;SDS011;7202;50.718;7.072;2024-02-26T01:02:11;1.10;;;0.90;;
14235;SDS011;7202;50.718;7.072;2024-02-26T01:04:40;1.83;;;1.02;;
14235;SDS011;7202;50.718;7.072;2024-02-26T01:07:10;1.90;;;1.00;;
14235;SDS011;7202;50.718;7.072;2024-02-26T01:09:39;1.05;;;0.75;;
14235;SDS011;7202;50.718;7.072;2024-02-26T01:12:07;1.25;;;0.82;;
14235;SDS011;7202;50.718;7.072;2024-02-26T01:14:36;3.08;;;1.27;;
14235;SDS011;7202;50.718;7.072;2024-02-26T01:17:05;1.38;;;0.85;;
14235;SDS011;7202;50.718;7.072;2024-02-26T01:19:33;1.45;;;1.00;;
14235;SDS011;7202;50.718;7.072;2024-02-26T01:22:02;1.08;;;0.95;;
14235;SDS011;7202;50.718;7.072;2024-02-26T01:24:32;1.30;;;0.95;;
14235;SDS011;7202;50.718;7.072;2024-02-26T01:27:00;1.52;;;1.00;;
14235;SDS011;7202;50.718;7.072;2024-02-26T01:29:29;0.93;;;0.75;;
14235;SDS011;7202;50.718;7.072;2024-02-26T01:31:57;1.70;;;1.10;;
14235;SDS011;7202;50.718;7.072;2024-02-26T01:34:26;2.15;;;1.00;;
14235;SDS011;7202;50.718;7.072;2024-02-26T01:36:55;1.42;;;0.98;;
14235;SDS011;7202;50.718;7.072;2024-02-26T01:39:23;1.35;;;0.77;;
14235;SDS011;7202;50.718;7.072;2024-02-26T01:41:54;1.58;;;1.00;;
14235;SDS011;7202;50.718;7.072;2024-02-26T01:44:22;2.03;;;1.00;;
14235;SDS011;7202;50.718;7.072;2024-02-26T01:46:51;1.55;;;1.00;;
14235;SDS011;7202;50.718;7.072;2024-02-26T01:49:20;1.13;;;0.98;;
14235;SDS011;7202;50.718;7.072;2024-02-26T01:51:49;2.15;;;1.10;;
14235;SDS011;7202;50.718;7.072;2024-02-26T01:54:17;1.98;;;1.10;;
14235;SDS011;7202;50.718;7.072;2024-02-26T01:56:46;1.08;;;0.95;;
14235;SDS011;7202;50.718;7.072;2024-02-26T01:59:16;1.88;;;1.00;;
14235;SDS011;7202;50.718;7.072;2024-02-26T02:01:45;2.45;;;1.10;;
14235;SDS011;7202;50.718;7.072;2024-02-26T02:04:16;1.88;;;0.93;;
14235;SDS011;7202;50.718;7.072;2024-02-26T02:06:45;2.50;;;1.02;;
14235;SDS011;7202;50.718;7.072;2024-02-26T02:09:14;1.60;;;1.10;;
14235;SDS011;7202;50.718;7.072;2024-02-26T02:11:43;3.05;;;1.00;;
14235;SDS011;7202;50.718;7.072;2024-02-26T02:14:13;2.10;;;1.10;;
14235;SDS011;7202;50.718;7.072;2024-02-26T02:16:43;1.85;;;1.10;;
14235;SDS011;7202;50.718;7.072;2024-02-26T02:19:11;1.20;;;0.90;;
14235;SDS011;7202;50.718;7.072;2024-02-26T02:21:41;1.15;;;0.85;;
14235;SDS011;7202;50.718;7.072;2024-02-26T02:24:09;1.80;;;1.10;;
14235;SDS011;7202;50.718;7.072;2024-02-26T02:26:38;0.60;;;0.60;;
14235;SDS011;7202;50.718;7.072;2024-02-26T02:29:06;1.13;;;1.00;;
14235;SDS011;7202;50.718;7.072;2024-02-26T02:31:36;2.45;;;1.10;;
14235;SDS011;7202;50.718;7.072;2024-02-26T02:34:05;1.67;;;0.90;;
14235;SDS011;7202;50.718;7.072;2024-02-26T02:36:33;1.50;;;1.15;;
14235;SDS011;7202;50.718;7.072;2024-02-26T02:39:03;1.98;;;1.10;;
14235;SDS011;7202;50.718;7.072;2024-02-26T02:41:32;2.58;;;1.10;;
14235;SDS011;7202;50.718;7.072;2024-02-26T02:44:00;1.98;;;1.00;;
14235;SDS011;7202;50.718;7.072;2024-02-26T02:46:29;1.73;;;1.05;;
14235;SDS011;7202;50.718;7.072;2024-02-26T02:49:00;1.27;;;1.00;;
14235;SDS011;7202;50.718;7.072;2024-02-26T02:51:29;1.58;;;1.00;;
14235;SDS011;7202;50.718;7.072;2024-02-26T02:53:57;1.48;;;0.82;;
14235;SDS011;7202;50.718;7.072;2024-02-26T02:56:27;0.90;;;0.80;;
14235;SDS011;7202;50.718;7.072;2024-02-26T02:58:56;3.13;;;1.48;;
14235;SDS011;7202;50.718;7.072;2024-02-26T03:01:24;1.75;;;1.05;;
14235;SDS011;7202;50.718;7.072;2024-02-26T03:03:53;1.55;;;0.90;;
14235;SDS011;7202;50.718;7.072;2024-02-26T03:06:21;1.77;;;0.80;;
14235;SDS011;7202;50.718;7.072;2024-02-26T03:08:51;5.25;;;1.08;;
14235;SDS011;7202;50.718;7.072;2024-02-26T03:11:21;1.75;;;0.90;;
14235;SDS011;7202;50.718;7.072;2024-02-26T03:13:51;2.60;;;1.00;;
14235;SDS011;7202;50.718;7.072;2024-02-26T03:16:19;1.42;;;0.88;;
14235;SDS011;7202;50.718;7.072;2024-02-26T03:18:48;1.65;;;0.82;;
14235;SDS011;7202;50.718;7.072;2024-02-26T03:21:17;1.45;;;0.85;;
14235;SDS011;7202;50.718;7.072;2024-02-26T03:23:46;4.07;;;1.15;;
14235;SDS011;7202;50.718;7.072;2024-02-26T03:26:15;1.52;;;1.00;;
14235;SDS011;7202;50.718;7.072;2024-02-26T03:28:43;2.10;;;1.10;;
14235;SDS011;7202;50.718;7.072;2024-02-26T03:31:13;2.83;;;0.88;;
14235;SDS011;7202;50.718;7.072;2024-02-26T03:33:42;1.40;;;1.08;;
14235;SDS011;7202;50.718;7.072;2024-02-26T03:36:10;1.38;;;0.80;;
14235;SDS011;7202;50.718;7.072;2024-02-26T03:38:39;1.98;;;1.00;;
14235;SDS011;7202;50.718;7.072;2024-02-26T03:41:08;2.72;;;1.23;;
14235;SDS011;7202;50.718;7.072;2024-02-26T03:43:36;2.47;;;1.15;;
14235;SDS011;7202;50.718;7.072;2024-02-26T03:46:06;2.85;;;0.93;;
14235;SDS011;7202;50.718;7.072;2024-02-26T03:48:37;2.00;;;1.20;;
14235;SDS011;7202;50.718;7.072;2024-02-26T03:51:08;3.42;;;1.30;;
14235;SDS011;7202;50.718;7.072;2024-02-26T03:53:36;1.67;;;1.00;;
14235;SDS011;7202;50.718;7.072;2024-02-26T03:56:05;2.13;;;1.33;;
14235;SDS011;7202;50.718;7.072;2024-02-26T03:58:34;2.10;;;1.10;;
14235;SDS011;7202;50.718;7.072;2024-02-26T04:01:03;1.98;;;1.10;;
14235;SDS011;7202;50.718;7.072;2024-02-26T04:03:34;3.28;;;1.25;;
14235;SDS011;7202;50.718;7.072;2024-02-26T04:06:04;2.22;;;1.42;;
14235;SDS011;7202;50.718;7.072;2024-02-26T04:08:36;1.25;;;0.90;;
14235;SDS011;7202;50.718;7.072;2024-02-26T04:11:04;1.40;;;0.95;;
14235;SDS011;7202;50.718;7.072;2024-02-26T04:13:34;3.00;;;1.10;;
14235;SDS011;7202;50.718;7.072;2024-02-26T04:16:05;1.33;;;1.02;;
14235;SDS011;7202;50.718;7.072;2024-02-26T04:18:33;2.45;;;1.05;;
14235;SDS011;7202;50.718;7.072;2024-02-26T04:21:04;2.33;;;1.30;;
14235;SDS011;7202;50.718;7.072;2024-02-26T04:23:34;1.70;;;1.20;;
14235;SDS011;7202;50.718;7.072;2024-02-26T04:26:03;8.55;;;2.03;;
14235;SDS011;7202;50.718;7.072;2024-02-26T04:28:32;4.03;;;1.38;;
14235;SDS011;7202;50.718;7.072;2024-02-26T04:31:01;1.48;;;1.10;;
14235;SDS011;7202;50.718;7.072;2024-02-26T04:33:30;2.53;;;1.30;;
14235;SDS011;7202;50.718;7.072;2024-02-26T04:36:01;1.88;;;1.40;;
14235;SDS011;7202;50.718;7.072;2024-02-26T04:38:32;2.63;;;1.20;;
14235;SDS011;7202;50.718;7.072;2024-02-26T04:41:01;1.67;;;1.27;;
14235;SDS011;7202;50.718;7.072;2024-02-26T04:43:29;1.65;;;1.35;;
14235;SDS011;7202;50.718;7.072;2024-02-26T04:45:58;1.58;;;1.23;;
14235;SDS011;7202;50.718;7.072;2024-02-26T04:48:27;4.20;;;1.40;;
14235;SDS011;7202;50.718;7.072;2024-02-26T04:50:55;2.20;;;1.40;;
14235;SDS011;7202;50.718;7.072;2024-02-26T04:53:25;2.60;;;1.40;;
14235;SDS011;7202;50.718;7.072;2024-02-26T04:55:54;1.60;;;1.23;;
14235;SDS011;7202;50.718;7.072;2024-02-26T04:58:23;5.28;;;1.35;;
14235;SDS011;7202;50.718;7.072;2024-02-26T05:00:51;2.42;;;1.13;;
14235;SDS011;7202;50.718;7.072;2024-02-26T05:03:20;2.50;;;1.40;;
14235;SDS011;7202;50.718;7.072;2024-02-26T05:05:49;1.95;;;1.40;;
14235;SDS011;7202;50.718;7.072;2024-02-26T05:08:17;3.17;;;1.05;;
14235;SDS011;7202;50.718;7.072;2024-02-26T05:10:47;3.25;;;1.58;;
14235;SDS011;7202;50.718;7.072;2024-02-26T05:13:15;2.80;;;1.58;;
14235;SDS011;7202;50.718;7.072;2024-02-26T05:15:44;2.00;;;1.25;;
14235;SDS011;7202;50.718;7.072;2024-02-26T05:18:15;3.05;;;1.30;;
14235;SDS011;7202;50.718;7.072;2024-02-26T05:20:44;1.50;;;1.30;;
14235;SDS011;7202;50.718;7.072;2024-02-26T05:23:13;2.58;;;1.27;;
14235;SDS011;7202;50.718;7.072;2024-02-26T05:25:41;4.30;;;1.40;;
14235;SDS011;7202;50.718;7.072;2024-02-26T05:28:14;1.35;;;1.10;;
14235;SDS011;7202;50.718;7.072;2024-02-26T05:30:43;4.30;;;1.38;;
14235;SDS011;7202;50.718;7.072;2024-02-26T05:33:12;3.15;;;1.70;;
14235;SDS011;7202;50.718;7.072;2024-02-26T05:35:45;1.60;;;1.27;;
14235;SDS011;7202;50.718;7.072;2024-02-26T05:38:13;2.45;;;1.45;;
14235;SDS011;7202;50.718;7.072;2024-02-26T05:40:42;2.45;;;1.52;;
14235;SDS011;7202;50.718;7.072;2024-02-26T05:43:14;4.53;;;1.73;;
14235;SDS011;7202;50.718;7.072;2024-02-26T05:45:43;3.63;;;1.85;;
14235;SDS011;7202;50.718;7.072;2024-02-26T05:48:12;3.28;;;1.60;;
14235;SDS011;7202;50.718;7.072;2024-02-26T05:50:40;2.47;;;1.50;;
14235;SDS011;7202;50.718;7.072;2024-02-26T05:53:09;1.50;;;1.40;;
14235;SDS011;7202;50.718;7.072;2024-02-26T05:55:37;4.40;;;1.63;;
14235;SDS011;7202;50.718;7.072;2024-02-26T05:58:06;1.92;;;1.50;;
14235;SDS011;7202;50.718;7.072;2024-02-26T06:00:36;1.83;;;1.42;;
14235;SDS011;7202;50.718;7.072;2024-02-26T06:03:04;1.98;;;1.58;;
14235;SDS011;7202;50.718;7.072;2024-02-26T06:05:33;2.80;;;1.67;;
14235;SDS011;7202;50.718;7.072;2024-02-26T06:08:02;4.38;;;1.40;;
14235;SDS011;7202;50.718;7.072;2024-02-26T06:10:31;2.63;;;1.90;;
14235;SDS011;7202;50.718;7.072;2024-02-26T06:13:00;2.95;;;1.70;;
14235;SDS011;7202;50.718;7.072;2024-02-26T06:15:28;3.20;;;1.40;;
14235;SDS011;7202;50.718;7.072;2024-02-26T06:17:58;2.15;;;1.83;;
14235;SDS011;7202;50.718;7.072;2024-02-26T06:20:27;2.67;;;1.63;;
14235;SDS011;7202;50.718;7.072;2024-02-26T06:22:55;2.83;;;1.77;;
14235;SDS011;7202;50.718;7.072;2024-02-26T06:25:24;3.63;;;2.10;;
14235;SDS011;7202;50.718;7.072;2024-02-26T06:27:53;2.85;;;2.10;;
14235;SDS011;7202;50.718;7.072;2024-02-26T06:30:22;5.00;;;1.80;;
14235;SDS011;7202;50.718;7.072;2024-02-26T06:32:50;3.70;;;1.77;;
14235;SDS011;7202;50.718;7.072;2024-02-26T06:35:20;2.30;;;1.83;;
14235;SDS011;7202;50.718;7.072;2024-02-26T06:37:49;2.97;;;2.45;;
14235;SDS011;7202;50.718;7.072;2024-02-26T06:40:19;2.75;;;1.90;;
14235;SDS011;7202;50.718;7.072;2024-02-26T06:42:48;2.35;;;2.03;;
14235;SDS011;7202;50.718;7.072;2024-02-26T06:45:17;4.30;;;1.83;;
14235;SDS011;7202;50.718;7.072;2024-02-26T06:47:46;4.47;;;2.13;;
14235;SDS011;7202;50.718;7.072;2024-02-26T06:50:15;4.13;;;2.58;;
14235;SDS011;7202;50.718;7.072;2024-02-26T06:52:45;2.65;;;2.00;;
14235;SDS011;7202;50.718;7.072;2024-02-26T06:55:14;3.22;;;1.83;;
14235;SDS011;7202;50.718;7.072;2024-02-26T06:57:42;2.90;;;1.77;;
14235;SDS011;7202;50.718;7.072;2024-02-26T07:00:11;4.97;;;2.38;;
14235;SDS011;7202;50.718;7.072;2024-02-26T07:02:42;3.63;;;2.38;;
14235;SDS011;7202;50.718;7.072;2024-02-26T07:05:11;4.85;;;2.28;;
14235;SDS011;7202;50.718;7.072;2024-02-26T07:07:39;2.63;;;1.88;;
14235;SDS011;7202;50.718;7.072;2024-02-26T07:10:10;3.40;;;2.25;;
14235;SDS011;7202;50.718;7.072;2024-02-26T07:12:39;2.95;;;2.10;;
14235;SDS011;7202;50.718;7.072;2024-02-26T07:15:08;3.05;;;2.15;;
14235;SDS011;7202;50.718;7.072;2024-02-26T07:17:38;2.90;;;2.08;;
14235;SDS011;7202;50.718;7.072;2024-02-26T07:20:09;4.30;;;2.20;;
14235;SDS011;7202;50.718;7.072;2024-02-26T07:22:38;2.97;;;2.25;;
14235;SDS011;7202;50.718;7.072;2024-02-26T07:25:10;2.90;;;2.15;;
14235;SDS011;7202;50.718;7.072;2024-02-26T07:27:40;3.40;;;2.40;;
14235;SDS011;7202;50.718;7.072;2024-02-26T07:30:09;4.63;;;2.63;;
14235;SDS011;7202;50.718;7.072;2024-02-26T07:32:38;6.45;;;3.22;;
14235;SDS011;7202;50.718;7.072;2024-02-26T07:35:07;3.17;;;2.25;;
14235;SDS011;7202;50.718;7.072;2024-02-26T07:37:36;2.53;;;2.00;;
14235;SDS011;7202;50.718;7.072;2024-02-26T07:40:05;4.72;;;2.30;;
14235;SDS011;7202;50.718;7.072;2024-02-26T07:42:36;3.42;;;2.15;;
14235;SDS011;7202;50.718;7.072;2024-02-26T07:45:06;2.97;;;2.08;;
14235;SDS011;7202;50.718;7.072;2024-02-26T07:47:35;2.20;;;1.85;;
14235;SDS011;7202;50.718;7.072;2024-02-26T07:50:07;4.28;;;2.33;;
14235;SDS011;7202;50.718;7.072;2024-02-26T07:52:36;3.67;;;2.22;;
14235;SDS011;7202;50.718;7.072;2024-02-26T07:55:05;5.10;;;2.15;;
14235;SDS011;7202;50.718;7.072;2024-02-26T07:57:36;5.05;;;2.30;;
14235;SDS011;7202;50.718;7.072;2024-02-26T08:00:06;2.85;;;2.30;;
14235;SDS011;7202;50.718;7.072;2024-02-26T08:02:36;3.03;;;2.22;;
14235;SDS011;7202;50.718;7.072;2024-02-26T08:05:05;3.17;;;2.15;;
14235;SDS011;7202;50.718;7.072;2024-02-26T08:07:33;3.60;;;2.20;;
14235;SDS011;7202;50.718;7.072;2024-02-26T08:10:02;2.75;;;2.15;;
14235;SDS011;7202;50.718;7.072;2024-02-26T08:12:31;5.43;;;2.67;;
14235;SDS011;7202;50.718;7.072;2024-02-26T08:15:02;3.38;;;2.25;;
14235;SDS011;7202;50.718;7.072;2024-02-26T08:17:31;3.30;;;2.58;;
14235;SDS011;7202;50.718;7.072;2024-02-26T08:20:00;4.72;;;2.90;;
14235;SDS011;7202;50.718;7.072;2024-02-26T08:22:29;3.22;;;2.30;;
14235;SDS011;7202;50.718;7.072;2024-02-26T08:24:58;2.80;;;2.25;;
14235;SDS011;7202;50.718;7.072;2024-02-26T08:27:26;3.78;;;2.70;;
14235;SDS011;7202;50.718;7.072;2024-02-26T08:29:55;4.05;;;3.08;;
14235;SDS011;7202;50.718;7.072;2024-02-26T08:32:25;4.82;;;2.80;;
14235;SDS011;7202;50.718;7.072;2024-02-26T08:34:53;4.18;;;2.53;;
14235;SDS011;7202;50.718;7.072;2024-02-26T08:37:22;5.75;;;2.50;;
14235;SDS011;7202;50.718;7.072;2024-02-26T08:39:51;3.65;;;2.40;;
14235;SDS011;7202;50.718;7.072;2024-02-26T08:42:19;3.20;;;2.50;;
14235;SDS011;7202;50.718;7.072;2024-02-26T08:44:51;3.80;;;2.50;;
14235;SDS011;7202;50.718;7.072;2024-02-26T08:47:21;2.85;;;2.50;;
14235;SDS011;7202;50.718;7.072;2024-02-26T08:49:51;4.07;;;2.65;;
14235;SDS011;7202;50.718;7.072;2024-02-26T08:52:19;3.95;;;2.83;;
14235;SDS011;7202;50.718;7.072;2024-02-26T08:54:48;2.92;;;2.30;;
14235;SDS011;7202;50.718;7.072;2024-02-26T08:57:17;3.97;;;2.55;;
14235;SDS011;7202;50.718;7.072;2024-02-26T08:59:45;3.17;;;2.33;;
14235;SDS011;7202;50.718;7.072;2024-02-26T09:02:14;3.10;;;2.60;;
14235;SDS011;7202;50.718;7.072;2024-02-26T09:04:42;4.53;;;2.42;;
14235;SDS011;7202;50.718;7.072;2024-02-26T09:07:12;2.97;;;2.17;;
14235;SDS011;7202;50.718;7.072;2024-02-26T09:09:41;3.25;;;2.42;;
14235;SDS011;7202;50.718;7.072;2024-02-26T09:12:10;4.00;;;2.25;;
14235;SDS011;7202;50.718;7.072;2024-02-26T09:14:38;2.58;;;2.25;;
14235;SDS011;7202;50.718;7.072;2024-02-26T09:17:07;3.13;;;2.22;;
14235;SDS011;7202;50.718;7.072;2024-02-26T09:19:35;5.40;;;1.98;;
14235;SDS011;7202;50.718;7.072;2024-02-26T09:22:05;2.47;;;2.08;;
14235;SDS011;7202;50.718;7.072;2024-02-26T09:24:35;3.60;;;2.50;;
14235;SDS011;7202;50.718;7.072;2024-02-26T09:27:04;3.08;;;2.40;;
14235;SDS011;7202;50.718;7.072;2024-02-26T09:29:35;4.40;;;2.25;;
14235;SDS011;7202;50.718;7.072;2024-02-26T09:32:03;3.38;;;2.33;;
14235;SDS011;7202;50.718;7.072;2024-02-26T09:34:32;3.30;;;2.33;;
14235;SDS011;7202;50.718;7.072;2024-02-26T09:37:01;3.85;;;2.70;;
14235;SDS011;7202;50.718;7.072;2024-02-26T09:39:45;4.65;;;2.30;;
14235;SDS011;7202;50.718;7.072;2024-02-26T09:42:14;4.15;;;2.60;;
14235;SDS011;7202;50.718;7.072;2024-02-26T09:44:46;5.05;;;2.67;;
14235;SDS011;7202;50.718;7.072;2024-02-26T09:47:19;4.18;;;2.60;;
14235;SDS011;7202;50.718;7.072;2024-02-26T09:49:49;5.28;;;2.63;;
14235;SDS011;7202;50.718;7.072;2024-02-26T09:52:21;4.72;;;2.50;;
14235;SDS011;7202;50.718;7.072;2024-02-26T09:54:52;3.35;;;2.70;;
14235;SDS011;7202;50.718;7.072;2024-02-26T09:57:21;4.75;;;2.78;;
14235;SDS011;7202;50.718;7.072;2024-02-26T09:59:53;3.00;;;2.70;;
14235;SDS011;7202;50.718;7.072;2024-02-26T10:02:26;3.38;;;2.20;;
14235;SDS011;7202;50.718;7.072;2024-02-26T10:04:56;2.83;;;2.42;;
14235;SDS011;7202;50.718;7.072;2024-02-26T10:07:31;4.13;;;2.58;;
14235;SDS011;7202;50.718;7.072;2024-02-26T10:10:02;4.43;;;2.78;;
14235;SDS011;7202;50.718;7.072;2024-02-26T10:12:31;4.25;;;2.53;;
14235;SDS011;7202;50.718;7.072;2024-02-26T10:15:00;3.50;;;2.50;;
14235;SDS011;7202;50.718;7.072;2024-02-26T10:17:29;6.28;;;2.72;;
14235;SDS011;7202;50.718;7.072;2024-02-26T10:20:10;5.07;;;2.70;;
14235;SDS011;7202;50.718;7.072;2024-02-26T10:22:40;3.83;;;3.20;;
14235;SDS011;7202;50.718;7.072;2024-02-26T10:25:10;4.43;;;2.78;;
14235;SDS011;7202;50.718;7.072;2024-02-26T10:27:40;4.57;;;3.10;;
14235;SDS011;7202;50.718;7.072;2024-02-26T10:30:19;3.08;;;2.35;;
14235;SDS011;7202;50.718;7.072;2024-02-26T10:32:49;4.05;;;2.40;;
14235;SDS011;7202;50.718;7.072;2024-02-26T10:35:18;4.13;;;2.70;;
14235;SDS011;7202;50.718;7.072;2024-02-26T10:37:48;3.60;;;2.35;;
14235;SDS011;7202;50.718;7.072;2024-02-26T10:40:19;3.40;;;2.50;;
14235;SDS011;7202;50.718;7.072;2024-02-26T10:42:47;3.20;;;2.40;;
14235;SDS011;7202;50.718;7.072;2024-02-26T10:45:16;3.20;;;2.55;;
14235;SDS011;7202;50.718;7.072;2024-02-26T10:47:45;3.83;;;2.42;;
14235;SDS011;7202;50.718;7.072;2024-02-26T10:50:14;3.85;;;2.65;;
14235;SDS011;7202;50.718;7.072;2024-02-26T10:52:43;3.97;;;2.33;;
14235;SDS011;7202;50.718;7.072;2024-02-26T10:55:13;5.20;;;3.00;;
14235;SDS011;7202;50.718;7.072;2024-02-26T10:57:47;3.90;;;2.83;;
14235;SDS011;7202;50.718;7.072;2024-02-26T11:00:18;4.53;;;2.83;;
14235;SDS011;7202;50.718;7.072;2024-02-26T11:02:47;3.90;;;2.65;;
14235;SDS011;7202;50.718;7.072;2024-02-26T11:05:16;5.75;;;2.97;;
14235;SDS011;7202;50.718;7.072;2024-02-26T11:07:45;3.58;;;2.72;;
14235;SDS011;7202;50.718;7.072;2024-02-26T11:10:14;3.63;;;2.60;;
14235;SDS011;7202;50.718;7.072;2024-02-26T11:12:44;4.68;;;2.67;;
14235;SDS011;7202;50.718;7.072;2024-02-26T11:15:16;3.55;;;2.80;;
14235;SDS011;7202;50.718;7.072;2024-02-26T11:17:46;3.67;;;2.80;;
14235;SDS011;7202;50.718;7.072;2024-02-26T11:20:16;3.78;;;2.85;;
14235;SDS011;7202;50.718;7.072;2024-02-26T11:22:47;3.10;;;2.50;;
14235;SDS011;7202;50.718;7.072;2024-02-26T11:25:15;5.10;;;2.72;;
14235;SDS011;7202;50.718;7.072;2024-02-26T11:27:49;3.13;;;2.80;;
14235;SDS011;7202;50.718;7.072;2024-02-26T11:30:21;2.88;;;2.28;;
14235;SDS011;7202;50.718;7.072;2024-02-26T11:32:51;2.95;;;2.63;;
14235;SDS011;7202;50.718;7.072;2024-02-26T11:35:21;4.15;;;2.88;;
14235;SDS011;7202;50.718;7.072;2024-02-26T11:37:53;3.78;;;2.90;;
14235;SDS011;7202;50.718;7.072;2024-02-26T11:40:23;4.68;;;2.75;;
14235;SDS011;7202;50.718;7.072;2024-02-26T11:42:54;3.72;;;2.95;;
14235;SDS011;7202;50.718;7.072;2024-02-26T11:48:28;3.85;;;2.70;;
14235;SDS011;7202;50.718;7.072;2024-02-26T11:50:57;4.78;;;2.72;;
14235;SDS011;7202;50.718;7.072;2024-02-26T11:53:27;5.07;;;3.17;;
14235;SDS011;7202;50.718;7.072;2024-02-26T11:56:13;4.93;;;3.28;;
14235;SDS011;7202;50.718;7.072;2024-02-26T11:58:49;4.55;;;3.53;;
14235;SDS011;7202;50.718;7.072;2024-02-26T12:01:40;4.60;;;2.78;;
14235;SDS011;7202;50.718;7.072;2024-02-26T12:04:14;4.28;;;3.35;;
14235;SDS011;7202;50.718;7.072;2024-02-26T12:06:46;4.15;;;3.17;;
14235;SDS011;7202;50.718;7.072;2024-02-26T12:09:31;8.00;;;3.38;;
14235;SDS011;7202;50.718;7.072;2024-02-26T12:12:04;4.75;;;2.83;;
14235;SDS011;7202;50.718;7.072;2024-02-26T12:14:36;7.95;;;3.13;;
14235;SDS011;7202;50.718;7.072;2024-02-26T12:17:06;4.00;;;2.97;;
14235;SDS011;7202;50.718;7.072;2024-02-26T12:19:36;5.03;;;3.10;;
14235;SDS011;7202;50.718;7.072;2024-02-26T12:22:10;3.58;;;2.65;;
14235;SDS011;7202;50.718;7.072;2024-02-26T12:24:41;4.13;;;3.10;;
14235;SDS011;7202;50.718;7.072;2024-02-26T12:27:10;6.13;;;3.20;;
14235;SDS011;7202;50.718;7.072;2024-02-26T12:29:40;5.55;;;3.72;;
14235;SDS011;7202;50.718;7.072;2024-02-26T12:32:10;4.78;;;3.38;;
14235;SDS011;7202;50.718;7.072;2024-02-26T12:34:38;5.50;;;3.20;;
14235;SDS011;7202;50.718;7.072;2024-02-26T12:37:07;7.45;;;3.40;;
14235;SDS011;7202;50.718;7.072;2024-02-26T12:39:37;4.43;;;3.08;;
14235;SDS011;7202;50.718;7.072;2024-02-26T12:42:06;4.63;;;3.17;;
14235;SDS011;7202;50.718;7.072;2024-02-26T12:44:35;3.78;;;2.90;;
14235;SDS011;7202;50.718;7.072;2024-02-26T12:47:05;4.30;;;3.05;;
14235;SDS011;7202;50.718;7.072;2024-02-26T12:49:33;5.47;;;3.38;;
14235;SDS011;7202;50.718;7.072;2024-02-26T12:52:05;3.72;;;2.80;;
14235;SDS011;7202;50.718;7.072;2024-02-26T12:54:34;5.05;;;3.25;;
14235;SDS011;7202;50.718;7.072;2024-02-26T12:57:06;6.00;;;2.97;;
14235;SDS011;7202;50.718;7.072;2024-02-26T12:59:36;3.75;;;2.78;;
14235;SDS011;7202;50.718;7.072;2024-02-26T13:02:07;6.72;;;3.42;;
14235;SDS011;7202;50.718;7.072;2024-02-26T13:04:36;6.18;;;3.22;;
14235;SDS011;7202;50.718;7.072;2024-02-26T13:07:06;5.45;;;3.03;;
14235;SDS011;7202;50.718;7.072;2024-02-26T13:09:35;5.65;;;2.83;;
14235;SDS011;7202;50.718;7.072;2024-02-26T13:12:04;6.35;;;3.17;;
14235;SDS011;7202;50.718;7.072;2024-02-26T13:14:34;8.20;;;3.25;;
14235;SDS011;7202;50.718;7.072;2024-02-26T13:17:02;4.88;;;3.33;;
14235;SDS011;7202;50.718;7.072;2024-02-26T13:19:33;4.80;;;3.20;;
14235;SDS011;7202;50.718;7.072;2024-02-26T13:22:05;6.13;;;3.60;;
14235;SDS011;7202;50.718;7.072;2024-02-26T13:24:35;4.88;;;3.47;;
14235;SDS011;7202;50.718;7.072;2024-02-26T13:27:04;5.70;;;3.53;;
14235;SDS011;7202;50.718;7.072;2024-02-26T13:29:34;5.90;;;3.25;;
14235;SDS011;7202;50.718;7.072;2024-02-26T13:32:05;6.00;;;3.95;;
14235;SDS011;7202;50.718;7.072;2024-02-26T13:34:35;6.35;;;3.90;;
14235;SDS011;7202;50.718;7.072;2024-02-26T13:37:04;5.43;;;3.45;;
14235;SDS011;7202;50.718;7.072;2024-02-26T13:39:33;4.35;;;3.55;;
14235;SDS011;7202;50.718;7.072;2024-02-26T13:42:06;4.43;;;3.28;;
14235;SDS011;7202;50.718;7.072;2024-02-26T13:44:38;5.75;;;3.17;;
14235;SDS011;7202;50.718;7.072;2024-02-26T13:47:08;5.18;;;3.40;;
14235;SDS011;7202;50.718;7.072;2024-02-26T13:49:38;4.43;;;3.00;;
14235;SDS011;7202;50.718;7.072;2024-02-26T13:52:06;4.25;;;3.00;;
14235;SDS011;7202;50.718;7.072;2024-02-26T13:54:35;7.60;;;2.72;;
14235;SDS011;7202;50.718;7.072;2024-02-26T13:57:05;4.22;;;2.90;;
14235;SDS011;7202;50.718;7.072;2024-02-26T13:59:34;3.30;;;2.85;;
14235;SDS011;7202;50.718;7.072;2024-02-26T14:02:02;5.28;;;3.40;;
14235;SDS011;7202;50.718;7.072;2024-02-26T14:04:31;4.93;;;3.15;;
14235;SDS011;7202;50.718;7.072;2024-02-26T14:07:01;4.28;;;2.97;;
14235;SDS011;7202;50.718;7.072;2024-02-26T14:09:31;3.67;;;3.10;;
14235;SDS011;7202;50.718;7.072;2024-02-26T14:12:15;3.97;;;3.00;;
14235;SDS011;7202;50.718;7.072;2024-02-26T14:14:48;4.13;;;3.15;;
14235;SDS011;7202;50.718;7.072;2024-02-26T14:17:20;6.05;;;3.10;;
14235;SDS011;7202;50.718;7.072;2024-02-26T14:19:48;4.53;;;3.60;;
14235;SDS011;7202;50.718;7.072;2024-02-26T14:22:18;4.00;;;3.03;;
14235;SDS011;7202;50.718;7.072;2024-02-26T14:24:46;7.22;;;3.78;;
14235;SDS011;7202;50.718;7.072;2024-02-26T14:27:15;4.70;;;3.65;;
14235;SDS011;7202;50.718;7.072;2024-02-26T14:29:44;4.40;;;3.22;;
14235;SDS011;7202;50.718;7.072;2024-02-26T14:32:12;6.88;;;4.30;;
14235;SDS011;7202;50.718;7.072;2024-02-26T14:34:41;9.50;;;4.55;;
14235;SDS011;7202;50.718;7.072;2024-02-26T14:37:10;6.00;;;3.58;;
14235;SDS011;7202;50.718;7.072;2024-02-26T14:39:39;7.22;;;4.10;;
14235;SDS011;7202;50.718;7.072;2024-02-26T14:42:08;6.38;;;3.50;;
14235;SDS011;7202;50.718;7.072;2024-02-26T14:44:37;5.55;;;3.70;;
14235;SDS011;7202;50.718;7.072;2024-02-26T14:47:05;5.53;;;3.53;;
14235;SDS011;7202;50.718;7.072;2024-02-26T14:49:34;6.70;;;4.07;;
14235;SDS011;7202;50.718;7.072;2024-02-26T14:52:03;6.45;;;3.92;;
14235;SDS011;7202;50.718;7.072;2024-02-26T14:54:31;5.68;;;3.90;;
14235;SDS011;7202;50.718;7.072;2024-02-26T14:57:05;6.53;;;3.80;;
14235;SDS011;7202;50.718;7.072;2024-02-26T14:59:34;6.75;;;4.00;;
14235;SDS011;7202;50.718;7.072;2024-02-26T15:02:04;9.50;;;3.70;;
14235;SDS011;7202;50.718;7.072;2024-02-26T15:04:33;5.75;;;3.67;;
14235;SDS011;7202;50.718;7.072;2024-02-26T15:07:02;7.07;;;4.28;;
14235;SDS011;7202;50.718;7.072;2024-02-26T15:09:31;8.27;;;4.40;;
14235;SDS011;7202;50.718;7.072;2024-02-26T15:12:01;5.50;;;3.97;;
14235;SDS011;7202;50.718;7.072;2024-02-26T15:14:34;8.15;;;4.75;;
14235;SDS011;7202;50.718;7.072;2024-02-26T15:17:03;7.25;;;4.15;;